sensor_id;sensor_type;location;lat;lon;timestamp;pressure;altitude;pressure_sealevel;temperature;humidity
12785;BME280;6456;42.680;23.260;2023-01-08T00:01:22;95117.50;;;3.72;100.00
12785;BME280;6456;42.680;23.260;2023-01-08T00:03:49;95101.06;;;3.71;100.00
12785;BME280;6456;42.680;23.260;2023-01-08T00:06:18;95154.19;;;3.95;100.00
12785;BME280;6456;42.680;23.260;2023-01-08T00:08:46;95175.53;;;3.98;100.00
12785;BME280;6456;42.680;23.260;2023-01-08T00:11:16;95072.75;;;3.52;100.00
12785;BME280;6456;42.680;23.260;2023-01-08T00:13:44;95138.06;;;3.83;100.00
12785;BME280;6456;42.680;23.260;2023-01-08T00:16:13;95101.06;;;3.55;100.00
12785;BME280;6456;42.680;23.260;2023-01-08T00:18:40;95159.69;;;3.92;100.00
12785;BME280;6456;42.680;23.260;2023-01-08T00:21:08;95068.63;;;3.42;100.00
12785;BME280;6456;42.680;23.260;2023-01-08T00:23:35;95060.00;;;3.33;100.00
12785;BME280;6456;42.680;23.260;2023-01-08T00:26:05;95088.16;;;3.46;100.00
12785;BME280;6456;42.680;23.260;2023-01-08T00:28:33;95067.03;;;3.41;100.00
12785;BME280;6456;42.680;23.260;2023-01-08T00:31:03;95134.78;;;3.73;100.00
12785;BME280;6456;42.680;23.260;2023-01-08T00:33:32;95185.47;;;4.03;100.00
12785;BME280;6456;42.680;23.260;2023-01-08T00:36:05;95076.91;;;3.37;100.00
12785;BME280;6456;42.680;23.260;2023-01-08T00:38:33;95132.06;;;3.49;100.00
12785;BME280;6456;42.680;23.260;2023-01-08T00:41:00;95169.19;;;3.59;100.00
12785;BME280;6456;42.680;23.260;2023-01-08T00:43:26;95104.31;;;3.15;100.00
12785;BME280;6456;42.680;23.260;2023-01-08T00:45:53;95134.44;;;3.34;100.00
12785;BME280;6456;42.680;23.260;2023-01-08T00:48:22;95039.19;;;2.91;100.00
12785;BME280;6456;42.680;23.260;2023-01-08T00:50:50;95185.34;;;3.78;100.00
12785;BME280;6456;42.680;23.260;2023-01-08T00:53:17;95114.50;;;3.43;100.00
12785;BME280;6456;42.680;23.260;2023-01-08T00:55:44;95180.47;;;3.67;100.00
12785;BME280;6456;42.680;23.260;2023-01-08T00:58:11;95052.97;;;2.84;100.00
12785;BME280;6456;42.680;23.260;2023-01-08T01:00:39;95144.38;;;3.31;100.00
12785;BME280;6456;42.680;23.260;2023-01-08T01:03:06;95100.16;;;2.97;100.00
12785;BME280;6456;42.680;23.260;2023-01-08T01:05:36;95106.69;;;3.09;100.00
12785;BME280;6456;42.680;23.260;2023-01-08T01:08:04;95019.56;;;2.63;100.00
12785;BME280;6456;42.680;23.260;2023-01-08T01:10:31;95111.56;;;3.04;100.00
12785;BME280;6456;42.680;23.260;2023-01-08T01:12:58;95101.66;;;3.07;100.00
12785;BME280;6456;42.680;23.260;2023-01-08T01:15:27;95165.41;;;3.53;100.00
12785;BME280;6456;42.680;23.260;2023-01-08T01:17:54;95093.34;;;3.04;100.00
12785;BME280;6456;42.680;23.260;2023-01-08T01:20:22;95035.06;;;2.73;100.00
12785;BME280;6456;42.680;23.260;2023-01-08T01:22:50;95061.41;;;2.86;100.00
12785;BME280;6456;42.680;23.260;2023-01-08T01:25:17;95091.41;;;3.06;100.00
12785;BME280;6456;42.680;23.260;2023-01-08T01:27:44;95140.66;;;3.41;100.00
12785;BME280;6456;42.680;23.260;2023-01-08T01:30:11;95049.09;;;2.88;100.00
12785;BME280;6456;42.680;23.260;2023-01-08T01:32:38;95061.56;;;2.84;100.00
12785;BME280;6456;42.680;23.260;2023-01-08T01:35:06;95128.59;;;3.32;100.00
12785;BME280;6456;42.680;23.260;2023-01-08T01:37:33;95069.91;;;2.88;100.00
12785;BME280;6456;42.680;23.260;2023-01-08T01:40:02;95101.38;;;3.10;100.00
12785;BME280;6456;42.680;23.260;2023-01-08T01:42:29;95031.88;;;2.61;100.00
12785;BME280;6456;42.680;23.260;2023-01-08T01:45:14;95141.28;;;3.35;100.00
12785;BME280;6456;42.680;23.260;2023-01-08T01:47:43;95125.28;;;3.22;100.00
12785;BME280;6456;42.680;23.260;2023-01-08T01:50:14;95046.09;;;2.75;100.00
12785;BME280;6456;42.680;23.260;2023-01-08T01:52:46;95176.00;;;3.52;100.00
12785;BME280;6456;42.680;23.260;2023-01-08T01:55:17;95093.69;;;3.09;100.00
12785;BME280;6456;42.680;23.260;2023-01-08T01:57:49;95074.97;;;2.97;100.00
12785;BME280;6456;42.680;23.260;2023-01-08T02:00:19;95064.00;;;2.86;100.00
12785;BME280;6456;42.680;23.260;2023-01-08T02:02:47;95101.72;;;3.15;100.00
12785;BME280;6456;42.680;23.260;2023-01-08T02:05:15;95111.94;;;3.17;100.00
12785;BME280;6456;42.680;23.260;2023-01-08T02:07:48;95090.63;;;3.13;100.00
12785;BME280;6456;42.680;23.260;2023-01-08T02:10:27;95028.22;;;2.72;100.00
12785;BME280;6456;42.680;23.260;2023-01-08T02:13:01;95072.69;;;2.94;100.00
12785;BME280;6456;42.680;23.260;2023-01-08T02:15:33;95098.72;;;3.02;100.00
12785;BME280;6456;42.680;23.260;2023-01-08T02:18:07;95028.16;;;2.64;100.00
12785;BME280;6456;42.680;23.260;2023-01-08T02:20:37;95084.03;;;2.93;100.00
12785;BME280;6456;42.680;23.260;2023-01-08T02:23:16;95079.88;;;3.00;100.00
12785;BME280;6456;42.680;23.260;2023-01-08T02:26:11;95072.50;;;2.96;100.00
12785;BME280;6456;42.680;23.260;2023-01-08T02:28:42;95135.75;;;3.30;100.00
12785;BME280;6456;42.680;23.260;2023-01-08T02:31:11;95093.31;;;2.96;100.00
12785;BME280;6456;42.680;23.260;2023-01-08T02:33:38;95069.56;;;2.91;100.00
12785;BME280;6456;42.680;23.260;2023-01-08T02:36:20;95002.78;;;2.49;100.00
12785;BME280;6456;42.680;23.260;2023-01-08T02:38:58;95079.81;;;2.92;100.00
12785;BME280;6456;42.680;23.260;2023-01-08T02:41:35;95095.25;;;2.94;100.00
12785;BME280;6456;42.680;23.260;2023-01-08T02:44:08;95047.47;;;2.61;100.00
12785;BME280;6456;42.680;23.260;2023-01-08T02:46:39;95105.03;;;3.00;100.00
12785;BME280;6456;42.680;23.260;2023-01-08T02:49:09;95030.75;;;2.64;100.00
12785;BME280;6456;42.680;23.260;2023-01-08T02:51:39;95054.16;;;2.64;100.00
12785;BME280;6456;42.680;23.260;2023-01-08T02:54:12;95086.63;;;2.93;100.00
12785;BME280;6456;42.680;23.260;2023-01-08T02:56:44;95079.94;;;2.91;100.00
12785;BME280;6456;42.680;23.260;2023-01-08T02:59:13;94976.97;;;2.22;100.00
12785;BME280;6456;42.680;23.260;2023-01-08T03:01:41;95100.09;;;2.89;100.00
12785;BME280;6456;42.680;23.260;2023-01-08T03:04:15;94996.47;;;2.26;100.00
12785;BME280;6456;42.680;23.260;2023-01-08T03:06:43;95067.72;;;2.75;100.00
12785;BME280;6456;42.680;23.260;2023-01-08T03:09:11;95127.50;;;3.09;100.00
12785;BME280;6456;42.680;23.260;2023-01-08T03:11:45;95072.69;;;2.69;100.00
12785;BME280;6456;42.680;23.260;2023-01-08T03:14:18;95078.25;;;2.74;100.00
12785;BME280;6456;42.680;23.260;2023-01-08T03:16:48;95061.44;;;2.60;100.00
12785;BME280;6456;42.680;23.260;2023-01-08T03:19:21;95103.31;;;2.83;100.00
12785;BME280;6456;42.680;23.260;2023-01-08T03:21:50;95106.72;;;2.83;100.00
12785;BME280;6456;42.680;23.260;2023-01-08T03:24:20;95067.78;;;2.57;100.00
12785;BME280;6456;42.680;23.260;2023-01-08T03:26:51;95138.19;;;2.98;100.00
12785;BME280;6456;42.680;23.260;2023-01-08T03:29:20;95023.44;;;2.33;100.00
12785;BME280;6456;42.680;23.260;2023-01-08T03:31:49;95043.16;;;2.44;100.00
12785;BME280;6456;42.680;23.260;2023-01-08T03:34:19;95070.09;;;2.69;100.00
12785;BME280;6456;42.680;23.260;2023-01-08T03:36:48;95065.19;;;2.66;100.00
12785;BME280;6456;42.680;23.260;2023-01-08T03:39:19;95046.28;;;2.47;100.00
12785;BME280;6456;42.680;23.260;2023-01-08T03:41:53;95124.47;;;2.88;100.00
12785;BME280;6456;42.680;23.260;2023-01-08T03:44:20;95086.16;;;2.64;100.00
12785;BME280;6456;42.680;23.260;2023-01-08T03:46:52;95081.13;;;2.63;100.00
12785;BME280;6456;42.680;23.260;2023-01-08T03:49:20;95089.38;;;2.58;100.00
12785;BME280;6456;42.680;23.260;2023-01-08T03:51:49;95044.22;;;2.33;100.00
12785;BME280;6456;42.680;23.260;2023-01-08T03:54:18;95092.31;;;2.63;100.00
12785;BME280;6456;42.680;23.260;2023-01-08T03:56:45;95144.28;;;2.89;100.00
12785;BME280;6456;42.680;23.260;2023-01-08T03:59:14;95041.94;;;2.30;100.00
12785;BME280;6456;42.680;23.260;2023-01-08T04:01:42;95076.63;;;2.47;100.00
12785;BME280;6456;42.680;23.260;2023-01-08T04:04:10;95105.16;;;2.65;100.00
12785;BME280;6456;42.680;23.260;2023-01-08T04:06:37;95118.03;;;2.74;100.00
12785;BME280;6456;42.680;23.260;2023-01-08T04:09:04;95089.00;;;2.53;100.00
12785;BME280;6456;42.680;23.260;2023-01-08T04:11:31;95133.81;;;2.81;100.00
12785;BME280;6456;42.680;23.260;2023-01-08T04:13:58;95011.88;;;2.02;100.00
12785;BME280;6456;42.680;23.260;2023-01-08T04:16:26;95043.50;;;2.23;100.00
12785;BME280;6456;42.680;23.260;2023-01-08T04:18:53;95123.06;;;2.76;100.00
12785;BME280;6456;42.680;23.260;2023-01-08T04:21:20;94999.94;;;1.91;100.00
12785;BME280;6456;42.680;23.260;2023-01-08T04:23:47;95100.25;;;2.62;100.00
12785;BME280;6456;42.680;23.260;2023-01-08T04:26:14;95054.94;;;2.30;100.00
12785;BME280;6456;42.680;23.260;2023-01-08T04:28:41;95067.94;;;2.38;100.00
12785;BME280;6456;42.680;23.260;2023-01-08T04:31:09;95125.47;;;2.69;100.00
12785;BME280;6456;42.680;23.260;2023-01-08T04:33:37;95063.69;;;2.29;100.00
12785;BME280;6456;42.680;23.260;2023-01-08T04:36:05;95047.59;;;2.08;100.00
12785;BME280;6456;42.680;23.260;2023-01-08T04:38:32;95043.28;;;2.17;100.00
12785;BME280;6456;42.680;23.260;2023-01-08T04:41:00;95053.13;;;2.05;100.00
12785;BME280;6456;42.680;23.260;2023-01-08T04:43:28;94980.34;;;1.71;100.00
12785;BME280;6456;42.680;23.260;2023-01-08T04:45:56;95029.91;;;1.86;100.00
12785;BME280;6456;42.680;23.260;2023-01-08T04:48:24;94989.84;;;1.63;100.00
12785;BME280;6456;42.680;23.260;2023-01-08T04:50:53;95131.06;;;2.56;100.00
12785;BME280;6456;42.680;23.260;2023-01-08T04:53:20;95082.06;;;2.18;100.00
12785;BME280;6456;42.680;23.260;2023-01-08T04:55:47;95112.41;;;2.35;100.00
12785;BME280;6456;42.680;23.260;2023-01-08T04:58:14;95032.78;;;1.83;100.00
12785;BME280;6456;42.680;23.260;2023-01-08T05:00:42;95043.53;;;1.88;100.00
12785;BME280;6456;42.680;23.260;2023-01-08T05:03:09;95016.44;;;1.65;100.00
12785;BME280;6456;42.680;23.260;2023-01-08T05:05:36;95088.53;;;2.14;100.00
12785;BME280;6456;42.680;23.260;2023-01-08T05:08:05;95128.13;;;2.34;100.00
12785;BME280;6456;42.680;23.260;2023-01-08T05:10:32;95046.97;;;1.71;100.00
12785;BME280;6456;42.680;23.260;2023-01-08T05:12:59;95111.31;;;2.20;100.00
12785;BME280;6456;42.680;23.260;2023-01-08T05:15:27;95097.91;;;2.07;100.00
12785;BME280;6456;42.680;23.260;2023-01-08T05:17:58;95155.66;;;2.44;100.00
12785;BME280;6456;42.680;23.260;2023-01-08T05:20:25;95070.22;;;1.98;100.00
12785;BME280;6456;42.680;23.260;2023-01-08T05:22:52;95139.53;;;2.41;100.00
12785;BME280;6456;42.680;23.260;2023-01-08T05:25:21;95084.25;;;2.05;100.00
12785;BME280;6456;42.680;23.260;2023-01-08T05:27:48;95111.75;;;2.16;100.00
12785;BME280;6456;42.680;23.260;2023-01-08T05:30:15;95047.13;;;1.87;100.00
12785;BME280;6456;42.680;23.260;2023-01-08T05:32:42;95048.81;;;1.78;100.00
12785;BME280;6456;42.680;23.260;2023-01-08T05:35:09;95127.31;;;2.33;100.00
12785;BME280;6456;42.680;23.260;2023-01-08T05:37:36;95139.06;;;2.37;100.00
12785;BME280;6456;42.680;23.260;2023-01-08T05:40:04;95097.44;;;2.12;100.00
12785;BME280;6456;42.680;23.260;2023-01-08T05:42:35;95108.28;;;2.07;100.00
12785;BME280;6456;42.680;23.260;2023-01-08T05:45:02;95124.34;;;2.28;100.00
12785;BME280;6456;42.680;23.260;2023-01-08T05:47:29;95125.06;;;2.13;100.00
12785;BME280;6456;42.680;23.260;2023-01-08T05:49:56;95081.81;;;1.86;100.00
12785;BME280;6456;42.680;23.260;2023-01-08T05:52:23;95129.13;;;2.15;100.00
12785;BME280;6456;42.680;23.260;2023-01-08T05:54:59;95084.09;;;1.89;100.00
12785;BME280;6456;42.680;23.260;2023-01-08T05:57:26;95122.66;;;2.02;100.00
12785;BME280;6456;42.680;23.260;2023-01-08T05:59:54;95149.94;;;2.23;100.00
12785;BME280;6456;42.680;23.260;2023-01-08T06:02:21;95075.44;;;1.63;100.00
12785;BME280;6456;42.680;23.260;2023-01-08T06:04:48;95139.56;;;2.06;100.00
12785;BME280;6456;42.680;23.260;2023-01-08T06:07:15;94984.94;;;1.07;100.00
12785;BME280;6456;42.680;23.260;2023-01-08T06:09:42;95082.03;;;1.57;100.00
12785;BME280;6456;42.680;23.260;2023-01-08T06:12:08;95134.81;;;1.83;100.00
12785;BME280;6456;42.680;23.260;2023-01-08T06:14:35;95149.72;;;1.99;100.00
12785;BME280;6456;42.680;23.260;2023-01-08T06:17:03;95063.56;;;1.43;100.00
12785;BME280;6456;42.680;23.260;2023-01-08T06:19:30;95075.44;;;1.63;100.00
12785;BME280;6456;42.680;23.260;2023-01-08T06:21:57;95140.38;;;2.06;100.00
12785;BME280;6456;42.680;23.260;2023-01-08T06:24:24;95088.00;;;1.75;100.00
12785;BME280;6456;42.680;23.260;2023-01-08T06:26:51;95117.31;;;2.03;100.00
12785;BME280;6456;42.680;23.260;2023-01-08T06:29:18;95166.78;;;2.19;100.00
12785;BME280;6456;42.680;23.260;2023-01-08T06:31:45;95146.03;;;2.19;100.00
12785;BME280;6456;42.680;23.260;2023-01-08T06:34:13;95141.13;;;2.16;100.00
12785;BME280;6456;42.680;23.260;2023-01-08T06:36:40;95114.41;;;1.71;100.00
12785;BME280;6456;42.680;23.260;2023-01-08T06:39:07;95134.53;;;1.86;100.00
12785;BME280;6456;42.680;23.260;2023-01-08T06:41:35;95093.13;;;1.50;100.00
12785;BME280;6456;42.680;23.260;2023-01-08T06:44:02;95119.03;;;1.77;100.00
12785;BME280;6456;42.680;23.260;2023-01-08T06:46:29;95182.38;;;2.19;100.00
12785;BME280;6456;42.680;23.260;2023-01-08T06:48:56;95116.06;;;1.72;100.00
12785;BME280;6456;42.680;23.260;2023-01-08T06:51:24;95109.16;;;1.80;100.00
12785;BME280;6456;42.680;23.260;2023-01-08T06:53:51;95075.19;;;1.56;100.00
12785;BME280;6456;42.680;23.260;2023-01-08T06:56:18;95178.94;;;2.19;100.00
12785;BME280;6456;42.680;23.260;2023-01-08T06:58:44;95157.69;;;2.15;100.00
12785;BME280;6456;42.680;23.260;2023-01-08T07:01:13;95178.47;;;2.33;100.00
12785;BME280;6456;42.680;23.260;2023-01-08T07:03:40;95150.84;;;2.14;100.00
12785;BME280;6456;42.680;23.260;2023-01-08T07:06:12;95203.16;;;2.37;100.00
12785;BME280;6456;42.680;23.260;2023-01-08T07:08:41;95184.53;;;2.41;100.00
12785;BME280;6456;42.680;23.260;2023-01-08T07:11:08;95193.13;;;2.42;100.00
12785;BME280;6456;42.680;23.260;2023-01-08T07:13:35;95176.28;;;2.28;100.00
12785;BME280;6456;42.680;23.260;2023-01-08T07:16:06;95162.63;;;2.26;100.00
12785;BME280;6456;42.680;23.260;2023-01-08T07:18:33;95133.56;;;2.05;100.00
12785;BME280;6456;42.680;23.260;2023-01-08T07:21:00;95181.56;;;2.36;100.00
12785;BME280;6456;42.680;23.260;2023-01-08T07:23:27;95205.28;;;2.59;100.00
12785;BME280;6456;42.680;23.260;2023-01-08T07:25:58;95201.78;;;2.68;100.00
12785;BME280;6456;42.680;23.260;2023-01-08T07:28:25;95199.72;;;2.72;100.00
12785;BME280;6456;42.680;23.260;2023-01-08T07:30:52;95174.56;;;2.54;100.00
12785;BME280;6456;42.680;23.260;2023-01-08T07:33:19;95185.53;;;2.66;100.00
12785;BME280;6456;42.680;23.260;2023-01-08T07:35:51;95128.44;;;2.31;100.00
12785;BME280;6456;42.680;23.260;2023-01-08T07:38:17;95138.03;;;2.30;100.00
12785;BME280;6456;42.680;23.260;2023-01-08T07:40:44;95208.47;;;2.71;100.00
12785;BME280;6456;42.680;23.260;2023-01-08T07:43:13;95192.13;;;2.60;100.00
12785;BME280;6456;42.680;23.260;2023-01-08T07:45:40;95156.41;;;2.37;100.00
12785;BME280;6456;42.680;23.260;2023-01-08T07:48:07;95141.56;;;2.29;100.00
12785;BME280;6456;42.680;23.260;2023-01-08T07:50:36;95201.94;;;2.67;100.00
12785;BME280;6456;42.680;23.260;2023-01-08T07:53:04;95203.13;;;2.72;100.00
12785;BME280;6456;42.680;23.260;2023-01-08T07:55:31;95178.19;;;2.62;100.00
12785;BME280;6456;42.680;23.260;2023-01-08T07:57:58;95201.84;;;2.76;100.00
12785;BME280;6456;42.680;23.260;2023-01-08T08:00:26;95206.22;;;2.76;100.00
12785;BME280;6456;42.680;23.260;2023-01-08T08:02:53;95166.41;;;2.49;100.00
12785;BME280;6456;42.680;23.260;2023-01-08T08:05:20;95099.28;;;2.19;100.00
12785;BME280;6456;42.680;23.260;2023-01-08T08:07:48;95192.91;;;2.96;100.00
12785;BME280;6456;42.680;23.260;2023-01-08T08:10:15;95175.56;;;2.79;100.00
12785;BME280;6456;42.680;23.260;2023-01-08T08:12:43;95148.50;;;2.64;100.00
12785;BME280;6456;42.680;23.260;2023-01-08T08:15:13;95193.91;;;3.03;100.00
12785;BME280;6456;42.680;23.260;2023-01-08T08:17:44;95148.75;;;2.79;100.00
12785;BME280;6456;42.680;23.260;2023-01-08T08:20:11;95199.84;;;3.13;100.00
12785;BME280;6456;42.680;23.260;2023-01-08T08:22:38;95135.88;;;2.69;100.00
12785;BME280;6456;42.680;23.260;2023-01-08T08:25:06;95212.66;;;3.07;100.00
12785;BME280;6456;42.680;23.260;2023-01-08T08:27:33;95183.03;;;3.00;100.00
12785;BME280;6456;42.680;23.260;2023-01-08T08:29:59;95163.00;;;2.92;100.00
12785;BME280;6456;42.680;23.260;2023-01-08T08:32:26;95192.38;;;3.18;100.00
12785;BME280;6456;42.680;23.260;2023-01-08T08:34:54;95191.50;;;3.28;100.00
12785;BME280;6456;42.680;23.260;2023-01-08T08:37:21;95206.41;;;3.51;100.00
12785;BME280;6456;42.680;23.260;2023-01-08T08:39:48;95162.56;;;3.31;100.00
12785;BME280;6456;42.680;23.260;2023-01-08T08:42:15;95212.94;;;3.63;100.00
12785;BME280;6456;42.680;23.260;2023-01-08T08:44:42;95146.75;;;3.24;100.00
12785;BME280;6456;42.680;23.260;2023-01-08T08:47:10;95165.34;;;3.37;100.00
12785;BME280;6456;42.680;23.260;2023-01-08T08:49:37;95219.38;;;3.77;100.00
12785;BME280;6456;42.680;23.260;2023-01-08T08:52:06;95205.84;;;3.73;100.00
12785;BME280;6456;42.680;23.260;2023-01-08T08:54:32;95209.69;;;3.95;100.00
12785;BME280;6456;42.680;23.260;2023-01-08T08:56:59;95212.78;;;3.99;100.00
12785;BME280;6456;42.680;23.260;2023-01-08T08:59:26;95089.50;;;3.16;100.00
12785;BME280;6456;42.680;23.260;2023-01-08T09:01:53;95148.75;;;3.72;100.00
12785;BME280;6456;42.680;23.260;2023-01-08T09:04:20;95208.75;;;4.12;100.00
12785;BME280;6456;42.680;23.260;2023-01-08T09:06:47;95196.41;;;4.22;100.00
12785;BME280;6456;42.680;23.260;2023-01-08T09:09:15;95182.88;;;4.19;100.00
12785;BME280;6456;42.680;23.260;2023-01-08T09:11:56;95120.16;;;3.80;100.00
12785;BME280;6456;42.680;23.260;2023-01-08T09:14:23;95154.56;;;4.24;100.00
12785;BME280;6456;42.680;23.260;2023-01-08T09:16:50;95182.94;;;4.43;100.00
12785;BME280;6456;42.680;23.260;2023-01-08T09:19:20;95069.53;;;3.74;100.00
12785;BME280;6456;42.680;23.260;2023-01-08T09:21:47;95090.41;;;3.91;100.00
12785;BME280;6456;42.680;23.260;2023-01-08T09:24:16;95169.91;;;4.59;100.00
12785;BME280;6456;42.680;23.260;2023-01-08T09:26:43;95189.44;;;4.79;100.00
12785;BME280;6456;42.680;23.260;2023-01-08T09:29:09;95165.66;;;4.66;100.00
12785;BME280;6456;42.680;23.260;2023-01-08T09:31:36;95126.25;;;4.45;100.00
12785;BME280;6456;42.680;23.260;2023-01-08T09:34:03;95118.09;;;4.32;100.00
12785;BME280;6456;42.680;23.260;2023-01-08T09:36:30;95098.56;;;4.36;100.00
12785;BME280;6456;42.680;23.260;2023-01-08T09:38:57;95088.13;;;4.44;100.00
12785;BME280;6456;42.680;23.260;2023-01-08T09:41:27;95176.09;;;4.98;100.00
12785;BME280;6456;42.680;23.260;2023-01-08T09:43:57;95043.88;;;4.28;100.00
12785;BME280;6456;42.680;23.260;2023-01-08T09:46:27;95101.81;;;4.62;98.95
12785;BME280;6456;42.680;23.260;2023-01-08T09:48:57;95149.34;;;5.04;99.06
12785;BME280;6456;42.680;23.260;2023-01-08T09:51:32;95054.25;;;4.52;98.42
12785;BME280;6456;42.680;23.260;2023-01-08T09:53:59;95057.16;;;4.73;98.02
12785;BME280;6456;42.680;23.260;2023-01-08T09:56:28;95148.59;;;5.43;96.83
12785;BME280;6456;42.680;23.260;2023-01-08T09:58:57;95143.50;;;5.49;96.63
12785;BME280;6456;42.680;23.260;2023-01-08T10:01:27;95124.09;;;5.44;96.29
12785;BME280;6456;42.680;23.260;2023-01-08T10:03:58;95074.81;;;5.10;95.64
12785;BME280;6456;42.680;23.260;2023-01-08T10:06:29;95027.81;;;4.79;96.00
12785;BME280;6456;42.680;23.260;2023-01-08T10:08:56;95104.75;;;5.38;95.27
12785;BME280;6456;42.680;23.260;2023-01-08T10:11:25;95096.84;;;5.46;93.76
12785;BME280;6456;42.680;23.260;2023-01-08T10:13:55;95047.19;;;5.24;93.47
12785;BME280;6456;42.680;23.260;2023-01-08T10:16:27;95045.25;;;5.26;93.06
12785;BME280;6456;42.680;23.260;2023-01-08T10:18:56;95063.75;;;5.47;93.39
12785;BME280;6456;42.680;23.260;2023-01-08T10:21:27;95015.44;;;5.20;92.95
12785;BME280;6456;42.680;23.260;2023-01-08T10:23:55;94995.22;;;5.22;93.36
12785;BME280;6456;42.680;23.260;2023-01-08T10:26:27;95105.06;;;6.05;93.22
12785;BME280;6456;42.680;23.260;2023-01-08T10:29:12;95111.72;;;6.15;92.02
12785;BME280;6456;42.680;23.260;2023-01-08T10:31:47;95103.81;;;6.23;91.76
12785;BME280;6456;42.680;23.260;2023-01-08T10:34:38;95089.59;;;6.26;90.59
12785;BME280;6456;42.680;23.260;2023-01-08T10:37:20;95027.28;;;5.92;90.52
12785;BME280;6456;42.680;23.260;2023-01-08T10:39:48;94970.97;;;5.67;90.39
12785;BME280;6456;42.680;23.260;2023-01-08T10:42:17;94964.44;;;5.71;90.01
12785;BME280;6456;42.680;23.260;2023-01-08T10:44:53;95074.31;;;6.37;90.58
12785;BME280;6456;42.680;23.260;2023-01-08T10:47:21;95021.53;;;6.19;89.98
12785;BME280;6456;42.680;23.260;2023-01-08T10:49:49;95079.69;;;6.59;88.90
12785;BME280;6456;42.680;23.260;2023-01-08T10:52:25;95073.75;;;6.65;88.46
12785;BME280;6456;42.680;23.260;2023-01-08T10:54:53;95072.31;;;6.77;88.20
12785;BME280;6456;42.680;23.260;2023-01-08T10:57:21;95031.28;;;6.63;88.44
12785;BME280;6456;42.680;23.260;2023-01-08T10:59:50;95064.47;;;6.91;87.89
12785;BME280;6456;42.680;23.260;2023-01-08T11:02:27;95064.94;;;6.95;87.26
12785;BME280;6456;42.680;23.260;2023-01-08T11:04:55;94941.16;;;6.21;86.75
12785;BME280;6456;42.680;23.260;2023-01-08T11:07:24;94981.50;;;6.56;86.61
12785;BME280;6456;42.680;23.260;2023-01-08T11:09:51;94986.00;;;6.62;86.42
12785;BME280;6456;42.680;23.260;2023-01-08T11:12:33;94999.63;;;6.87;86.06
12785;BME280;6456;42.680;23.260;2023-01-08T11:15:04;95045.72;;;7.17;85.72
12785;BME280;6456;42.680;23.260;2023-01-08T11:17:32;95027.69;;;7.07;85.12
12785;BME280;6456;42.680;23.260;2023-01-08T11:20:08;95042.94;;;7.33;84.86
12785;BME280;6456;42.680;23.260;2023-01-08T11:22:36;95008.47;;;7.00;84.59
12785;BME280;6456;42.680;23.260;2023-01-08T11:25:10;95021.38;;;7.02;85.00
12785;BME280;6456;42.680;23.260;2023-01-08T11:27:41;95002.44;;;7.00;84.35
12785;BME280;6456;42.680;23.260;2023-01-08T11:30:14;94983.94;;;7.01;84.30
12785;BME280;6456;42.680;23.260;2023-01-08T11:32:46;94978.16;;;7.06;83.71
12785;BME280;6456;42.680;23.260;2023-01-08T11:35:17;94991.25;;;7.06;84.46
12785;BME280;6456;42.680;23.260;2023-01-08T11:37:49;94987.06;;;7.11;84.09
12785;BME280;6456;42.680;23.260;2023-01-08T11:40:17;94931.47;;;6.74;84.17
12785;BME280;6456;42.680;23.260;2023-01-08T11:43:03;94944.06;;;6.85;83.99
12785;BME280;6456;42.680;23.260;2023-01-08T11:45:43;95024.38;;;7.49;84.02
12785;BME280;6456;42.680;23.260;2023-01-08T11:51:31;95002.91;;;7.39;83.76
12785;BME280;6456;42.680;23.260;2023-01-08T11:54:05;95021.94;;;7.62;83.55
12785;BME280;6456;42.680;23.260;2023-01-08T11:56:44;95016.00;;;7.54;83.59
12785;BME280;6456;42.680;23.260;2023-01-08T11:59:21;94951.72;;;7.16;83.22
12785;BME280;6456;42.680;23.260;2023-01-08T12:02:00;94945.56;;;7.23;82.92
12785;BME280;6456;42.680;23.260;2023-01-08T12:04:59;94926.78;;;7.20;82.84
12785;BME280;6456;42.680;23.260;2023-01-08T12:07:36;95002.00;;;7.83;82.67
12785;BME280;6456;42.680;23.260;2023-01-08T12:10:13;94909.47;;;7.19;82.51
12785;BME280;6456;42.680;23.260;2023-01-08T12:12:49;94979.72;;;7.72;82.12
12785;BME280;6456;42.680;23.260;2023-01-08T12:15:25;94973.44;;;7.88;81.83
12785;BME280;6456;42.680;23.260;2023-01-08T12:18:13;94983.69;;;8.04;81.61
12785;BME280;6456;42.680;23.260;2023-01-08T12:20:47;94982.41;;;8.00;80.61
12785;BME280;6456;42.680;23.260;2023-01-08T12:23:26;94899.28;;;7.45;80.20
12785;BME280;6456;42.680;23.260;2023-01-08T12:26:18;94998.31;;;8.19;80.07
12785;BME280;6456;42.680;23.260;2023-01-08T12:34:46;94930.47;;;8.10;79.21
12785;BME280;6456;42.680;23.260;2023-01-08T12:37:18;94934.22;;;8.22;79.37
12785;BME280;6456;42.680;23.260;2023-01-08T12:39:51;94861.53;;;7.82;79.45
12785;BME280;6456;42.680;23.260;2023-01-08T12:42:22;94939.59;;;8.35;78.89
12785;BME280;6456;42.680;23.260;2023-01-08T12:44:54;94902.84;;;8.28;78.39
12785;BME280;6456;42.680;23.260;2023-01-08T12:47:26;94899.03;;;8.31;78.04
12785;BME280;6456;42.680;23.260;2023-01-08T12:50:08;94936.97;;;8.69;78.02
12785;BME280;6456;42.680;23.260;2023-01-08T12:52:42;94884.16;;;8.38;77.85
12785;BME280;6456;42.680;23.260;2023-01-08T12:55:20;94892.72;;;8.53;77.73
12785;BME280;6456;42.680;23.260;2023-01-08T12:57:58;94903.22;;;8.60;77.02
12785;BME280;6456;42.680;23.260;2023-01-08T13:00:38;94949.03;;;8.91;76.53
12785;BME280;6456;42.680;23.260;2023-01-08T13:03:10;94906.38;;;8.76;76.46
12785;BME280;6456;42.680;23.260;2023-01-08T13:05:41;94921.97;;;8.91;76.21
12785;BME280;6456;42.680;23.260;2023-01-08T13:08:22;94959.88;;;9.23;75.81
12785;BME280;6456;42.680;23.260;2023-01-08T13:10:53;94887.03;;;8.84;75.93
12785;BME280;6456;42.680;23.260;2023-01-08T13:13:29;94902.41;;;8.93;76.04
12785;BME280;6456;42.680;23.260;2023-01-08T13:16:07;94904.22;;;8.99;76.01
12785;BME280;6456;42.680;23.260;2023-01-08T13:18:35;94871.28;;;8.84;75.54
12785;BME280;6456;42.680;23.260;2023-01-08T13:21:05;94900.22;;;9.03;75.26
12785;BME280;6456;42.680;23.260;2023-01-08T13:23:34;94872.50;;;8.94;74.35
12785;BME280;6456;42.680;23.260;2023-01-08T13:26:04;94903.06;;;9.09;74.07